createdAt,value
2022-10-02T00:03:04.817Z,100587.66
2022-10-02T00:05:41.253Z,100577.66
2022-10-02T00:08:24.190Z,100602.03
2022-10-02T00:11:23.594Z,100596.66
2022-10-02T00:13:59.135Z,100589.78
2022-10-02T00:17:03.314Z,100593.66
2022-10-02T00:19:30.650Z,100598.28
2022-10-02T00:22:20.364Z,100594.69
2022-10-02T00:24:54.477Z,100607.09
2022-10-02T00:27:58.803Z,100599.91
2022-10-02T00:30:25.827Z,100611.00
2022-10-02T00:33:24.035Z,100610.88
2022-10-02T00:36:39.502Z,100617.09
2022-10-02T00:39:39.494Z,100616.44
2022-10-02T00:42:50.371Z,100636.91
2022-10-02T00:45:22.932Z,100619.53
2022-10-02T00:48:07.869Z,100616.28
2022-10-02T00:51:35.095Z,100616.28
2022-10-02T00:54:10.831Z,100601.38
2022-10-02T00:57:40.211Z,100610.06
2022-10-02T01:00:18.894Z,100607.75
2022-10-02T01:03:14.316Z,100588.31
2022-10-02T01:05:41.654Z,100597.16
2022-10-02T01:08:09.031Z,100606.28
2022-10-02T01:10:38.155Z,100601.88
2022-10-02T01:13:05.986Z,100601.22
2022-10-02T01:15:42.533Z,100604.81
2022-10-02T01:18:13.687Z,100602.06
2022-10-02T01:20:53.608Z,100608.06
2022-10-02T01:23:42.611Z,100601.22
2022-10-02T01:26:09.685Z,100614.81
2022-10-02T01:28:37.767Z,100624.06
2022-10-02T01:31:10.909Z,100629.63
2022-10-02T01:33:41.624Z,100614.75
2022-10-02T01:36:11.246Z,100617.00
2022-10-02T01:38:41.523Z,100605.47
2022-10-02T01:41:11.475Z,100607.34
2022-10-02T01:44:00.552Z,100623.88
2022-10-02T01:46:59.516Z,100625.69
2022-10-02T01:49:57.814Z,100628.41
2022-10-02T01:52:46.712Z,100631.03
2022-10-02T01:55:47.275Z,100619.78
2022-10-02T01:58:50.355Z,100618.63
2022-10-02T02:01:25.431Z,100622.03
2022-10-02T02:04:30.337Z,100628.22
2022-10-02T02:07:27.373Z,100623.63
2022-10-02T02:10:17.763Z,100629.47
2022-10-02T02:13:01.970Z,100627.00
2022-10-02T02:15:40.262Z,100629.47
2022-10-02T02:18:29.847Z,100621.81
2022-10-02T02:21:04.424Z,100622.28
2022-10-02T02:23:35.259Z,100622.13
2022-10-02T02:26:12.486Z,100624.94
2022-10-02T02:28:48.829Z,100623.44
2022-10-02T02:31:21.594Z,100635.25
2022-10-02T02:33:56.211Z,100627.22
2022-10-02T02:36:30.902Z,100627.44
2022-10-02T02:39:10.372Z,100617.28
2022-10-02T02:42:01.534Z,100621.81
2022-10-02T02:44:41.979Z,100616.47
2022-10-02T02:47:22.596Z,100628.41
2022-10-02T02:49:57.210Z,100625.75
2022-10-02T02:52:41.629Z,100625.44
2022-10-02T02:55:19.115Z,100625.47
2022-10-02T02:58:05.616Z,100623.34
2022-10-02T03:00:32.692Z,100624.81
2022-10-02T03:03:00.612Z,100614.16
2022-10-02T03:05:29.594Z,100611.22
2022-10-02T03:08:03.204Z,100610.41
2022-10-02T03:11:10.032Z,100614.00
2022-10-02T03:14:07.860Z,100606.28
2022-10-02T03:16:54.296Z,100604.03
2022-10-02T03:19:48.147Z,100594.53
2022-10-02T03:22:49.203Z,100606.28
2022-10-02T03:25:33.226Z,100604.34
2022-10-02T03:28:54.583Z,100598.13
2022-10-02T03:31:23.203Z,100607.63
2022-10-02T03:33:53.843Z,100612.69
2022-10-02T03:36:24.419Z,100612.69
2022-10-02T03:39:19.943Z,100616.44
2022-10-02T03:41:42.318Z,100616.78
2022-10-02T03:44:09.213Z,100616.63
2022-10-02T03:46:36.488Z,100619.06
2022-10-02T03:49:03.592Z,100618.44
2022-10-02T03:51:30.936Z,100616.94
2022-10-02T03:53:58.072Z,100618.56
2022-10-02T03:56:39.370Z,100610.88
2022-10-02T03:59:16.019Z,100623.19
2022-10-02T04:01:50.858Z,100631.84
2022-10-02T04:04:31.760Z,100628.41
2022-10-02T04:07:04.849Z,100628.41
2022-10-02T04:10:08.208Z,100632.50
2022-10-02T04:12:40.403Z,100627.25
2022-10-02T04:15:26.298Z,100628.56
2022-10-02T04:18:06.279Z,100629.06
2022-10-02T04:20:33.183Z,100616.28
2022-10-02T04:23:28.220Z,100613.84
2022-10-02T04:26:07.496Z,100612.50
2022-10-02T04:28:50.699Z,100620.19
2022-10-02T04:31:17.820Z,100617.13
2022-10-02T04:33:44.856Z,100615.47
2022-10-02T04:36:53.738Z,100614.00
2022-10-02T04:39:27.408Z,100616.59
2022-10-02T04:42:29.262Z,100622.03
2022-10-02T04:45:17.789Z,100617.75
2022-10-02T04:48:11.999Z,100613.03
2022-10-02T04:51:23.507Z,100605.81
2022-10-02T04:54:16.445Z,100603.66
2022-10-02T04:57:10.902Z,100601.38
2022-10-02T05:00:08.684Z,100609.44
2022-10-02T05:03:13.101Z,100606.13
2022-10-02T05:06:24.984Z,100610.06
2022-10-02T05:09:08.961Z,100617.28
2022-10-02T05:11:57.150Z,100615.94
2022-10-02T05:14:39.010Z,100611.69
2022-10-02T05:18:00.018Z,100624.63
2022-10-02T05:21:03.492Z,100622.53
2022-10-02T05:24:13.454Z,100643.41
2022-10-02T05:27:20.664Z,100626.88
2022-10-02T05:30:14.032Z,100624.44
2022-10-02T05:33:33.103Z,100625.09
2022-10-02T05:36:23.656Z,100631.28
2022-10-02T05:39:08.355Z,100628.28
2022-10-02T05:41:44.283Z,100622.09
2022-10-02T05:44:27.396Z,100619.16
2022-10-02T05:47:22.222Z,100622.69
2022-10-02T05:49:55.446Z,100615.53
2022-10-02T05:53:06.172Z,100612.91
2022-10-02T05:55:49.918Z,100619.63
2022-10-02T05:58:36.945Z,100611.94
2022-10-02T06:01:15.389Z,100619.81
2022-10-02T06:03:51.170Z,100620.41
2022-10-02T06:06:33.583Z,100623.09
2022-10-02T06:09:20.003Z,100627.75
2022-10-02T06:12:02.878Z,100633.88
2022-10-02T06:14:34.425Z,100626.13
2022-10-02T06:17:26.992Z,100616.84
2022-10-02T06:20:19.155Z,100627.09
2022-10-02T06:23:14.135Z,100626.13
2022-10-02T06:25:50.039Z,100626.13
2022-10-02T06:28:25.467Z,100628.91
2022-10-02T06:31:30.507Z,100624.50
2022-10-02T06:33:58.147Z,100624.66
2022-10-02T06:36:58.358Z,100629.25
2022-10-02T06:39:49.347Z,100628.78
2022-10-02T06:42:27.992Z,100618.47
2022-10-02T06:45:53.310Z,100608.69
2022-10-02T06:48:54.567Z,100596.56
2022-10-02T06:51:57.562Z,100595.00
2022-10-02T06:54:46.115Z,100594.47
2022-10-02T06:57:25.939Z,100593.28
2022-10-02T07:00:12.329Z,100600.16
2022-10-02T07:02:51.590Z,100598.84
2022-10-02T07:05:53.339Z,100593.66
2022-10-02T07:08:46.734Z,100599.69
2022-10-02T07:12:04.970Z,100585.97
2022-10-02T07:15:00.830Z,100589.53
2022-10-02T07:18:08.871Z,100597.88
2022-10-02T07:21:05.351Z,100605.47
2022-10-02T07:24:07.878Z,100596.91
2022-10-02T07:26:48.315Z,100581.50
2022-10-02T07:29:42.864Z,100581.84
2022-10-02T07:32:40.414Z,100561.97
2022-10-02T07:35:31.165Z,100561.63
2022-10-02T07:38:44.703Z,100570.44
2022-10-02T07:41:52.117Z,100576.00
2022-10-02T07:44:43.867Z,100572.25
2022-10-02T07:47:41.338Z,100572.41
2022-10-02T07:50:25.129Z,100580.09
2022-10-02T07:53:02.114Z,100585.81
2022-10-02T07:55:29.036Z,100591.75
2022-10-02T07:58:21.647Z,100588.28
2022-10-02T08:01:02.349Z,100598.75
2022-10-02T08:04:01.273Z,100610.88
2022-10-02T08:06:29.038Z,100625.75
2022-10-02T08:09:39.072Z,100618.41
2022-10-02T08:12:37.759Z,100614.81
2022-10-02T08:15:11.427Z,100605.97
2022-10-02T08:17:58.775Z,100621.00
2022-10-02T08:20:44.403Z,100616.94
2022-10-02T08:23:46.059Z,100621.19
2022-10-02T08:26:30.658Z,100616.25
2022-10-02T08:29:09.561Z,100617.41
2022-10-02T08:31:36.575Z,100619.06
2022-10-02T08:34:20.915Z,100622.66
2022-10-02T08:36:47.867Z,100627.41
2022-10-02T08:39:46.530Z,100631.34
2022-10-02T08:42:45.467Z,100628.41
2022-10-02T08:46:04.630Z,100627.25
2022-10-02T08:48:59.078Z,100619.88
2022-10-02T08:51:57.859Z,100619.25
2022-10-02T08:55:10.657Z,100607.94
2022-10-02T08:58:03.562Z,100591.09
2022-10-02T09:01:07.188Z,100589.09
2022-10-02T09:04:13.003Z,100591.75
2022-10-02T09:07:04.737Z,100600.09
2022-10-02T09:09:46.598Z,100589.63
2022-10-02T09:12:44.630Z,100598.94
2022-10-02T09:15:19.308Z,100596.00
2022-10-02T09:18:14.027Z,100601.41
2022-10-02T09:20:50.435Z,100607.44
2022-10-02T09:23:26.193Z,100608.44
2022-10-02T09:26:21.486Z,100626.44
2022-10-02T09:29:15.755Z,100624.00
2022-10-02T09:32:17.682Z,100614.16
2022-10-02T09:35:40.794Z,100618.25
2022-10-02T09:38:35.659Z,100616.28
2022-10-02T09:41:30.618Z,100614.97
2022-10-02T09:44:28.286Z,100619.09
2022-10-02T09:47:14.958Z,100610.06
2022-10-02T09:50:04.911Z,100616.94
2022-10-02T09:52:45.306Z,100612.00
2022-10-02T09:55:39.142Z,100609.25
2022-10-02T09:58:36.713Z,100619.22
2022-10-02T10:02:13.295Z,100617.56
2022-10-02T10:05:13.158Z,100609.25
2022-10-02T10:07:58.067Z,100606.63
2022-10-02T10:10:31.120Z,100606.28
2022-10-02T10:13:55.996Z,100621.16
2022-10-02T10:16:48.431Z,100602.66
2022-10-02T10:19:54.055Z,100620.53
2022-10-02T10:23:25.023Z,100618.53
2022-10-02T10:26:16.638Z,100621.50
2022-10-02T10:29:16.965Z,100629.84
2022-10-02T10:32:17.543Z,100620.88
2022-10-02T10:34:47.263Z,100624.78
2022-10-02T10:38:14.765Z,100624.09
2022-10-02T10:41:13.052Z,100614.91
2022-10-02T10:44:11.207Z,100618.38
2022-10-02T10:46:59.490Z,100613.63
2022-10-02T10:49:41.464Z,100630.69
2022-10-02T10:52:17.164Z,100621.47
2022-10-02T10:55:14.955Z,100620.59
2022-10-02T10:58:33.843Z,100601.31
2022-10-02T11:01:39.725Z,100614.91
2022-10-02T11:04:19.079Z,100611.22
2022-10-02T11:07:35.055Z,100608.28
2022-10-02T11:10:23.528Z,100607.31
2022-10-02T11:13:43.935Z,100598.09
2022-10-02T11:16:41.164Z,100617.44
2022-10-02T11:19:51.220Z,100604.31
2022-10-02T11:22:22.212Z,100604.56
2022-10-02T11:24:55.248Z,100593.00
2022-10-02T11:28:26.378Z,100600.28
2022-10-02T11:31:53.846Z,100577.50
2022-10-02T11:34:44.941Z,100589.38
2022-10-02T11:37:43.977Z,100588.53
2022-10-02T11:40:44.955Z,100586.38
2022-10-02T11:43:32.937Z,100596.81
2022-10-02T11:46:52.214Z,100606.88
2022-10-02T11:50:03.781Z,100599.00
2022-10-02T11:52:48.715Z,100604.16
2022-10-02T11:55:57.010Z,100608.16
2022-10-02T11:58:51.314Z,100599.97
2022-10-02T12:01:52.313Z,100608.50
2022-10-02T12:05:05.954Z,100613.34
2022-10-02T12:07:44.216Z,100615.91
2022-10-02T12:10:28.585Z,100610.31
2022-10-02T12:13:36.565Z,100622.78
2022-10-02T12:16:34.076Z,100622.25
2022-10-02T12:20:03.108Z,100616.53
2022-10-02T12:23:29.697Z,100617.00
2022-10-02T12:26:22.576Z,100618.59
2022-10-02T12:29:41.115Z,100620.56
2022-10-02T12:32:36.489Z,100622.22
2022-10-02T12:35:20.828Z,100617.78
2022-10-02T12:38:18.386Z,100627.41
2022-10-02T12:41:08.665Z,100617.91
2022-10-02T12:44:22.066Z,100609.91
2022-10-02T12:47:51.153Z,100610.78
2022-10-02T12:50:42.809Z,100610.22
2022-10-02T12:53:29.155Z,100605.31
2022-10-02T12:56:36.213Z,100610.44
2022-10-02T12:59:49.546Z,100604.72
2022-10-02T13:03:01.229Z,100601.16
2022-10-02T13:05:58.137Z,100601.88
2022-10-02T13:08:49.542Z,100609.28
2022-10-02T13:11:55.854Z,100604.25
2022-10-02T13:14:33.148Z,100607.22
2022-10-02T13:17:52.024Z,100615.38
2022-10-02T13:20:55.943Z,100634.75
2022-10-02T13:24:01.003Z,100628.56
2022-10-02T13:27:08.046Z,100643.88
2022-10-02T13:30:16.252Z,100650.47
2022-10-02T13:33:26.767Z,100658.97
2022-10-02T13:36:08.248Z,100647.78
2022-10-02T13:39:03.409Z,100654.03
2022-10-02T13:41:47.797Z,100646.22
2022-10-02T13:44:58.691Z,100638.63
2022-10-02T13:47:47.601Z,100640.16
2022-10-02T13:50:26.611Z,100631.66
2022-10-02T13:53:11.649Z,100640.69
2022-10-02T13:56:17.443Z,100653.41
2022-10-02T13:59:10.773Z,100637.97
2022-10-02T14:01:53.146Z,100644.91
2022-10-02T14:04:50.388Z,100636.63
2022-10-02T14:07:51.239Z,100632.22
2022-10-02T14:10:33.463Z,100647.38
2022-10-02T14:13:28.651Z,100640.66
2022-10-02T14:16:23.958Z,100627.06
2022-10-02T14:19:13.705Z,100632.66
2022-10-02T14:22:14.171Z,100647.09
2022-10-02T14:25:04.285Z,100624.16
2022-10-02T14:28:03.376Z,100631.03
2022-10-02T14:31:07.504Z,100614.66
2022-10-02T14:33:35.009Z,100606.63
2022-10-02T14:36:25.378Z,100592.34
2022-10-02T14:39:32.255Z,100591.00
2022-10-02T14:42:30.899Z,100593.31
2022-10-02T14:45:21.271Z,100599.50
2022-10-02T14:48:21.768Z,100592.00
2022-10-02T14:51:18.545Z,100589.72
2022-10-02T14:54:16.395Z,100599.09
2022-10-02T14:56:54.751Z,100593.38
2022-10-02T14:59:41.697Z,100606.16
2022-10-02T15:02:11.225Z,100622.69
2022-10-02T15:05:04.650Z,100623.81
2022-10-02T15:07:34.807Z,100633.97
2022-10-02T15:10:22.962Z,100643.66
2022-10-02T15:13:38.669Z,100639.53
2022-10-02T15:16:39.115Z,100643.47
2022-10-02T15:19:11.620Z,100641.84
2022-10-02T15:22:00.746Z,100653.13
2022-10-02T15:24:45.479Z,100658.53
2022-10-02T15:27:39.467Z,100646.41
2022-10-02T15:30:23.173Z,100646.03
2022-10-02T15:33:25.972Z,100667.53
2022-10-02T15:36:24.052Z,100676.41
2022-10-02T15:39:00.237Z,100677.88
2022-10-02T15:41:48.826Z,100663.44
2022-10-02T15:45:02.584Z,100663.78
2022-10-02T15:47:48.575Z,100650.50
2022-10-02T15:50:38.846Z,100672.78
2022-10-02T15:53:46.830Z,100687.53
2022-10-02T15:57:08.639Z,100689.84
2022-10-02T16:00:09.465Z,100696.53
2022-10-02T16:02:47.420Z,100689.03
2022-10-02T16:05:29.421Z,100687.69
2022-10-02T16:08:46.032Z,100684.25
2022-10-02T16:11:27.939Z,100672.97
2022-10-02T16:14:02.045Z,100686.06
2022-10-02T16:17:29.978Z,100704.06
2022-10-02T16:20:22.665Z,100710.44
2022-10-02T16:23:25.163Z,100725.88
2022-10-02T16:26:13.897Z,100715.53
2022-10-02T16:29:26.553Z,100721.28
2022-10-02T16:32:19.365Z,100722.59
2022-10-02T16:35:44.067Z,100734.72
2022-10-02T16:38:50.452Z,100720.94
2022-10-02T16:41:40.136Z,100732.22
2022-10-02T16:44:23.504Z,100736.50
2022-10-02T16:47:27.407Z,100729.78
2022-10-02T16:50:33.335Z,100729.28
2022-10-02T16:53:10.503Z,100733.53
2022-10-02T16:55:45.350Z,100724.38
2022-10-02T16:58:29.738Z,100729.13
2022-10-02T17:01:02.267Z,100722.94
2022-10-02T17:03:44.495Z,100745.34
2022-10-02T17:06:32.422Z,100755.28
2022-10-02T17:09:19.147Z,100766.25
2022-10-02T17:11:51.745Z,100759.91
2022-10-02T17:14:31.111Z,100769.88
2022-10-02T17:18:08.755Z,100780.75
2022-10-02T17:20:53.593Z,100786.66
2022-10-02T17:23:35.666Z,100793.19
2022-10-02T17:26:28.406Z,100784.50
2022-10-02T17:29:07.320Z,100789.91
2022-10-02T17:31:56.001Z,100803.69
2022-10-02T17:34:31.691Z,100806.38
2022-10-02T17:37:13.919Z,100801.50
2022-10-02T17:40:01.512Z,100810.81
2022-10-02T17:43:13.391Z,100808.94
2022-10-02T17:46:23.894Z,100799.72
2022-10-02T17:49:17.590Z,100794.03
2022-10-02T17:52:43.943Z,100789.41
2022-10-02T17:56:16.118Z,100774.69
2022-10-02T17:58:55.890Z,100749.84
2022-10-02T18:01:31.551Z,100760.31
2022-10-02T18:04:19.695Z,100796.28
2022-10-02T18:07:30.524Z,100817.72
2022-10-02T18:10:32.208Z,100813.09
2022-10-02T18:13:31.824Z,100826.84
2022-10-02T18:16:23.319Z,100829.66
2022-10-02T18:19:24.970Z,100826.84
2022-10-02T18:22:32.138Z,100820.44
2022-10-02T18:25:27.473Z,100821.09
2022-10-02T18:28:11.379Z,100826.00
2022-10-02T18:31:55.433Z,100824.84
2022-10-02T18:35:07.442Z,100823.34
2022-10-02T18:37:57.519Z,100827.72
2022-10-02T18:40:30.427Z,100828.38
2022-10-02T18:43:38.848Z,100847.53
2022-10-02T18:46:49.403Z,100856.03
2022-10-02T18:50:07.662Z,100852.69
2022-10-02T18:52:55.582Z,100866.03
2022-10-02T18:56:02.823Z,100869.06
2022-10-02T18:58:41.829Z,100871.47
2022-10-02T19:01:30.880Z,100875.06
2022-10-02T19:04:28.571Z,100880.28
2022-10-02T19:07:11.007Z,100890.72
2022-10-02T19:09:38.072Z,100890.41
2022-10-02T19:12:25.360Z,100902.16
2022-10-02T19:14:55.829Z,100907.63
2022-10-02T19:17:25.976Z,100908.56
2022-10-02T19:19:54.227Z,100914.19
2022-10-02T19:22:38.422Z,100921.97
2022-10-02T19:25:16.491Z,100925.09
2022-10-02T19:27:50.257Z,100921.44
2022-10-02T19:30:30.460Z,100925.84
2022-10-02T19:33:02.450Z,100929.59
2022-10-02T19:35:33.562Z,100938.88
2022-10-02T19:38:27.890Z,100941.22
2022-10-02T19:40:57.248Z,100942.16
2022-10-02T19:43:31.108Z,100955.63
2022-10-02T19:46:04.052Z,100959.47
2022-10-02T19:48:32.665Z,100964.78
2022-10-02T19:51:19.109Z,100969.56
2022-10-02T19:53:55.244Z,100971.50
2022-10-02T19:56:41.141Z,100980.75
2022-10-02T19:59:25.472Z,100985.72
2022-10-02T20:01:55.178Z,100995.34
2022-10-02T20:04:28.955Z,100995.81
2022-10-02T20:07:00.629Z,100998.22
2022-10-02T20:09:36.622Z,100995.41
2022-10-02T20:12:47.632Z,101005.06
2022-10-02T20:15:15.890Z,101006.94
2022-10-02T20:17:42.969Z,101008.59
2022-10-02T20:20:16.705Z,101006.88
2022-10-02T20:23:01.589Z,101003.13
2022-10-02T20:25:42.097Z,101014.75
2022-10-02T20:28:23.102Z,101010.84
2022-10-02T20:31:04.682Z,101013.47
2022-10-02T20:33:37.360Z,101016.53
2022-10-02T20:36:29.186Z,101023.81
2022-10-02T20:39:11.786Z,101020.97
2022-10-02T20:42:09.872Z,101028.53
2022-10-02T20:44:37.564Z,101025.53
2022-10-02T20:47:35.384Z,101035.84
2022-10-02T20:50:31.173Z,101037.63
2022-10-02T20:53:53.282Z,101041.47
2022-10-02T20:56:41.869Z,101052.75
2022-10-02T20:59:48.000Z,101049.31
2022-10-02T21:02:29.802Z,101056.28
2022-10-02T21:05:30.467Z,101058.50
2022-10-02T21:08:27.659Z,101071.84
2022-10-02T21:11:15.660Z,101076.09
2022-10-02T21:14:22.950Z,101074.16
2022-10-02T21:17:41.875Z,101092.88
2022-10-02T21:20:27.751Z,101098.78
2022-10-02T21:23:32.155Z,101092.19
2022-10-02T21:26:30.126Z,101093.97
2022-10-02T21:29:27.879Z,101094.78
2022-10-02T21:32:22.950Z,101103.84
2022-10-02T21:35:10.160Z,101104.84
2022-10-02T21:37:56.249Z,101098.50
2022-10-02T21:40:57.360Z,101101.09
2022-10-02T21:43:56.050Z,101103.16
2022-10-02T21:46:59.089Z,101104.94
2022-10-02T21:50:05.975Z,101103.53
2022-10-02T21:53:18.958Z,101107.22
2022-10-02T21:56:00.102Z,101108.41
2022-10-02T21:58:51.775Z,101113.69
2022-10-02T22:01:36.351Z,101124.78
2022-10-02T22:04:28.297Z,101123.72
2022-10-02T22:07:22.411Z,101132.16
2022-10-02T22:10:30.215Z,101132.38
2022-10-02T22:13:21.580Z,101133.03
2022-10-02T22:16:09.804Z,101127.28
2022-10-02T22:18:50.854Z,101128.78
2022-10-02T22:21:45.404Z,101127.97
2022-10-02T22:24:53.810Z,101126.91
2022-10-02T22:27:29.499Z,101130.63
2022-10-02T22:29:57.414Z,101133.53
2022-10-02T22:33:01.683Z,101136.97
2022-10-02T22:36:04.973Z,101137.91
2022-10-02T22:38:52.993Z,101141.00
2022-10-02T22:41:33.970Z,101144.03
2022-10-02T22:44:09.368Z,101143.97
2022-10-02T22:46:50.382Z,101144.66
2022-10-02T22:49:34.986Z,101145.09
2022-10-02T22:52:42.372Z,101146.91
2022-10-02T22:55:34.508Z,101148.41
2022-10-02T22:58:33.384Z,101153.84
2022-10-02T23:01:17.023Z,101156.28
2022-10-02T23:04:26.031Z,101162.78
2022-10-02T23:07:02.227Z,101162.41
2022-10-02T23:09:59.496Z,101164.59
2022-10-02T23:12:40.595Z,101160.03
2022-10-02T23:15:42.548Z,101163.94
2022-10-02T23:18:50.484Z,101156.03
2022-10-02T23:21:45.638Z,101160.94
2022-10-02T23:24:13.079Z,101159.69
2022-10-02T23:26:57.049Z,101156.03
2022-10-02T23:30:10.327Z,101159.56
2022-10-02T23:32:55.715Z,101169.41
2022-10-02T23:35:49.223Z,101174.88
2022-10-02T23:39:05.235Z,101173.53
2022-10-02T23:42:02.078Z,101181.00
2022-10-02T23:44:43.117Z,101178.59
2022-10-02T23:47:46.895Z,101175.19
2022-10-02T23:51:09.627Z,101168.56
2022-10-02T23:54:57.608Z,101168.56
2022-10-02T23:58:04.683Z,101181.13
